sensor_id;sensor_type;location;lat;lon;timestamp;P1;durP1;ratioP1;P2;durP2;ratioP2
78670;SDS011;68277;52.724;6.516;2023-04-24T00:00:06;1.20;;;0.95;;
78670;SDS011;68277;52.724;6.516;2023-04-24T00:02:36;1.95;;;1.00;;
78670;SDS011;68277;52.724;6.516;2023-04-24T00:05:05;1.58;;;1.02;;
78670;SDS011;68277;52.724;6.516;2023-04-24T00:07:31;2.15;;;1.40;;
78670;SDS011;68277;52.724;6.516;2023-04-24T00:09:57;1.88;;;1.10;;
78670;SDS011;68277;52.724;6.516;2023-04-24T00:12:23;1.80;;;1.35;;
78670;SDS011;68277;52.724;6.516;2023-04-24T00:14:49;3.97;;;1.83;;
78670;SDS011;68277;52.724;6.516;2023-04-24T00:17:14;2.47;;;1.70;;
78670;SDS011;68277;52.724;6.516;2023-04-24T00:19:40;2.65;;;1.65;;
78670;SDS011;68277;52.724;6.516;2023-04-24T00:22:05;2.75;;;2.00;;
78670;SDS011;68277;52.724;6.516;2023-04-24T00:24:31;2.22;;;1.65;;
78670;SDS011;68277;52.724;6.516;2023-04-24T00:26:57;3.03;;;1.90;;
78670;SDS011;68277;52.724;6.516;2023-04-24T00:29:22;2.22;;;1.58;;
78670;SDS011;68277;52.724;6.516;2023-04-24T00:31:48;2.95;;;1.50;;
78670;SDS011;68277;52.724;6.516;2023-04-24T00:34:14;3.83;;;1.70;;
78670;SDS011;68277;52.724;6.516;2023-04-24T00:36:41;3.35;;;1.70;;
78670;SDS011;68277;52.724;6.516;2023-04-24T00:39:06;3.33;;;1.90;;
78670;SDS011;68277;52.724;6.516;2023-04-24T00:41:35;3.88;;;2.35;;
78670;SDS011;68277;52.724;6.516;2023-04-24T00:44:00;3.50;;;2.30;;
78670;SDS011;68277;52.724;6.516;2023-04-24T00:48:53;4.45;;;2.10;;
78670;SDS011;68277;52.724;6.516;2023-04-24T00:51:18;5.07;;;2.38;;
78670;SDS011;68277;52.724;6.516;2023-04-24T00:53:45;3.53;;;2.08;;
78670;SDS011;68277;52.724;6.516;2023-04-24T00:56:10;5.50;;;2.53;;
78670;SDS011;68277;52.724;6.516;2023-04-24T00:58:36;3.97;;;2.03;;
78670;SDS011;68277;52.724;6.516;2023-04-24T01:01:02;3.15;;;1.80;;
78670;SDS011;68277;52.724;6.516;2023-04-24T01:03:32;3.22;;;1.73;;
78670;SDS011;68277;52.724;6.516;2023-04-24T01:05:58;2.17;;;1.30;;
78670;SDS011;68277;52.724;6.516;2023-04-24T01:08:24;3.33;;;1.70;;
78670;SDS011;68277;52.724;6.516;2023-04-24T01:10:53;2.47;;;1.75;;
78670;SDS011;68277;52.724;6.516;2023-04-24T01:13:19;3.17;;;1.85;;
78670;SDS011;68277;52.724;6.516;2023-04-24T01:15:45;2.78;;;1.90;;
78670;SDS011;68277;52.724;6.516;2023-04-24T01:18:11;3.35;;;1.90;;
78670;SDS011;68277;52.724;6.516;2023-04-24T01:20:38;2.35;;;1.70;;
78670;SDS011;68277;52.724;6.516;2023-04-24T01:23:06;2.88;;;1.95;;
78670;SDS011;68277;52.724;6.516;2023-04-24T01:25:32;3.67;;;2.10;;
78670;SDS011;68277;52.724;6.516;2023-04-24T01:27:58;2.63;;;1.70;;
78670;SDS011;68277;52.724;6.516;2023-04-24T01:30:24;4.60;;;2.42;;
78670;SDS011;68277;52.724;6.516;2023-04-24T01:32:50;2.67;;;1.92;;
78670;SDS011;68277;52.724;6.516;2023-04-24T01:35:16;2.97;;;2.30;;
78670;SDS011;68277;52.724;6.516;2023-04-24T01:37:42;6.85;;;1.73;;
78670;SDS011;68277;52.724;6.516;2023-04-24T01:40:08;5.93;;;2.38;;
78670;SDS011;68277;52.724;6.516;2023-04-24T01:42:34;3.22;;;2.38;;
78670;SDS011;68277;52.724;6.516;2023-04-24T01:47:30;3.83;;;2.30;;
78670;SDS011;68277;52.724;6.516;2023-04-24T01:49:56;3.58;;;2.15;;
78670;SDS011;68277;52.724;6.516;2023-04-24T01:52:24;3.28;;;2.05;;
78670;SDS011;68277;52.724;6.516;2023-04-24T01:54:50;2.97;;;2.17;;
78670;SDS011;68277;52.724;6.516;2023-04-24T01:57:17;3.83;;;2.33;;
78670;SDS011;68277;52.724;6.516;2023-04-24T01:59:43;3.17;;;2.10;;
78670;SDS011;68277;52.724;6.516;2023-04-24T02:02:08;3.78;;;2.50;;
78670;SDS011;68277;52.724;6.516;2023-04-24T02:04:34;4.28;;;2.40;;
78670;SDS011;68277;52.724;6.516;2023-04-24T02:07:00;3.63;;;2.50;;
78670;SDS011;68277;52.724;6.516;2023-04-24T02:09:25;5.65;;;2.70;;
78670;SDS011;68277;52.724;6.516;2023-04-24T02:11:51;3.75;;;2.60;;
78670;SDS011;68277;52.724;6.516;2023-04-24T02:14:17;5.10;;;2.85;;
78670;SDS011;68277;52.724;6.516;2023-04-24T02:16:42;4.50;;;2.67;;
78670;SDS011;68277;52.724;6.516;2023-04-24T02:19:09;4.78;;;2.50;;
78670;SDS011;68277;52.724;6.516;2023-04-24T02:21:34;4.68;;;2.72;;
78670;SDS011;68277;52.724;6.516;2023-04-24T02:24:00;4.28;;;2.95;;
78670;SDS011;68277;52.724;6.516;2023-04-24T02:26:26;3.60;;;2.20;;
78670;SDS011;68277;52.724;6.516;2023-04-24T02:28:51;5.70;;;3.22;;
78670;SDS011;68277;52.724;6.516;2023-04-24T02:31:19;5.35;;;3.20;;
78670;SDS011;68277;52.724;6.516;2023-04-24T02:33:46;4.45;;;2.95;;
78670;SDS011;68277;52.724;6.516;2023-04-24T02:36:12;4.97;;;3.13;;
78670;SDS011;68277;52.724;6.516;2023-04-24T02:38:38;5.22;;;2.97;;
78670;SDS011;68277;52.724;6.516;2023-04-24T02:41:04;4.25;;;2.88;;
78670;SDS011;68277;52.724;6.516;2023-04-24T02:45:57;6.35;;;2.90;;
78670;SDS011;68277;52.724;6.516;2023-04-24T02:48:22;7.03;;;3.65;;
78670;SDS011;68277;52.724;6.516;2023-04-24T02:50:48;9.50;;;3.00;;
78670;SDS011;68277;52.724;6.516;2023-04-24T02:53:16;5.38;;;3.33;;
78670;SDS011;68277;52.724;6.516;2023-04-24T02:55:43;4.20;;;3.13;;
78670;SDS011;68277;52.724;6.516;2023-04-24T02:58:08;4.40;;;2.92;;
78670;SDS011;68277;52.724;6.516;2023-04-24T03:00:35;3.70;;;2.80;;
78670;SDS011;68277;52.724;6.516;2023-04-24T03:03:00;7.57;;;3.78;;
78670;SDS011;68277;52.724;6.516;2023-04-24T03:05:26;6.85;;;3.50;;
78670;SDS011;68277;52.724;6.516;2023-04-24T03:07:52;3.25;;;2.65;;
78670;SDS011;68277;52.724;6.516;2023-04-24T03:10:20;5.25;;;3.08;;
78670;SDS011;68277;52.724;6.516;2023-04-24T03:12:47;4.57;;;3.40;;
78670;SDS011;68277;52.724;6.516;2023-04-24T03:15:13;5.45;;;3.58;;
78670;SDS011;68277;52.724;6.516;2023-04-24T03:17:41;4.72;;;3.50;;
78670;SDS011;68277;52.724;6.516;2023-04-24T03:20:07;6.32;;;3.63;;
78670;SDS011;68277;52.724;6.516;2023-04-24T03:22:34;4.68;;;3.47;;
78670;SDS011;68277;52.724;6.516;2023-04-24T03:25:02;4.70;;;2.70;;
78670;SDS011;68277;52.724;6.516;2023-04-24T03:27:29;4.57;;;2.92;;
78670;SDS011;68277;52.724;6.516;2023-04-24T03:30:00;4.63;;;3.28;;
78670;SDS011;68277;52.724;6.516;2023-04-24T03:32:35;5.43;;;3.20;;
78670;SDS011;68277;52.724;6.516;2023-04-24T03:35:01;6.82;;;3.72;;
78670;SDS011;68277;52.724;6.516;2023-04-24T03:37:27;5.85;;;3.70;;
78670;SDS011;68277;52.724;6.516;2023-04-24T03:40:13;5.03;;;3.15;;
78670;SDS011;68277;52.724;6.516;2023-04-24T03:42:40;4.60;;;3.05;;
78670;SDS011;68277;52.724;6.516;2023-04-24T03:45:07;4.60;;;3.30;;
78670;SDS011;68277;52.724;6.516;2023-04-24T03:47:37;4.13;;;2.47;;
78670;SDS011;68277;52.724;6.516;2023-04-24T03:50:04;5.20;;;3.28;;
78670;SDS011;68277;52.724;6.516;2023-04-24T03:52:31;4.57;;;2.78;;
78670;SDS011;68277;52.724;6.516;2023-04-24T03:54:57;6.60;;;3.63;;
78670;SDS011;68277;52.724;6.516;2023-04-24T03:57:24;5.90;;;3.53;;
78670;SDS011;68277;52.724;6.516;2023-04-24T04:00:05;5.03;;;3.50;;
78670;SDS011;68277;52.724;6.516;2023-04-24T04:02:39;5.30;;;3.42;;
78670;SDS011;68277;52.724;6.516;2023-04-24T04:05:05;4.95;;;3.25;;
78670;SDS011;68277;52.724;6.516;2023-04-24T04:07:31;5.53;;;3.38;;
78670;SDS011;68277;52.724;6.516;2023-04-24T04:10:03;7.53;;;3.92;;
78670;SDS011;68277;52.724;6.516;2023-04-24T04:12:29;6.43;;;3.53;;
78670;SDS011;68277;52.724;6.516;2023-04-24T04:14:55;5.13;;;3.25;;
78670;SDS011;68277;52.724;6.516;2023-04-24T04:17:21;7.15;;;4.40;;
78670;SDS011;68277;52.724;6.516;2023-04-24T04:19:47;7.10;;;3.38;;
78670;SDS011;68277;52.724;6.516;2023-04-24T04:22:12;5.68;;;2.75;;
78670;SDS011;68277;52.724;6.516;2023-04-24T04:24:42;5.75;;;3.17;;
78670;SDS011;68277;52.724;6.516;2023-04-24T04:27:09;4.65;;;3.00;;
78670;SDS011;68277;52.724;6.516;2023-04-24T04:29:43;4.88;;;2.50;;
78670;SDS011;68277;52.724;6.516;2023-04-24T04:32:10;5.03;;;2.55;;
78670;SDS011;68277;52.724;6.516;2023-04-24T04:34:36;5.05;;;2.95;;
78670;SDS011;68277;52.724;6.516;2023-04-24T04:37:04;4.60;;;2.35;;
78670;SDS011;68277;52.724;6.516;2023-04-24T04:39:52;4.70;;;1.75;;
78670;SDS011;68277;52.724;6.516;2023-04-24T04:42:22;3.15;;;2.00;;
78670;SDS011;68277;52.724;6.516;2023-04-24T04:44:49;3.35;;;2.00;;
78670;SDS011;68277;52.724;6.516;2023-04-24T04:47:19;5.40;;;1.60;;
78670;SDS011;68277;52.724;6.516;2023-04-24T04:49:53;2.40;;;1.40;;
78670;SDS011;68277;52.724;6.516;2023-04-24T04:52:23;3.70;;;1.63;;
78670;SDS011;68277;52.724;6.516;2023-04-24T04:54:55;3.45;;;1.77;;
78670;SDS011;68277;52.724;6.516;2023-04-24T04:57:24;5.35;;;2.55;;
78670;SDS011;68277;52.724;6.516;2023-04-24T04:59:50;3.72;;;2.03;;
78670;SDS011;68277;52.724;6.516;2023-04-24T05:02:26;5.88;;;2.75;;
78670;SDS011;68277;52.724;6.516;2023-04-24T05:04:51;3.85;;;2.15;;
78670;SDS011;68277;52.724;6.516;2023-04-24T05:07:17;3.83;;;2.30;;
78670;SDS011;68277;52.724;6.516;2023-04-24T05:09:48;4.85;;;2.47;;
78670;SDS011;68277;52.724;6.516;2023-04-24T05:12:13;8.27;;;2.53;;
78670;SDS011;68277;52.724;6.516;2023-04-24T05:14:46;4.82;;;2.10;;
78670;SDS011;68277;52.724;6.516;2023-04-24T05:17:12;4.13;;;2.63;;
78670;SDS011;68277;52.724;6.516;2023-04-24T05:19:37;6.78;;;1.95;;
78670;SDS011;68277;52.724;6.516;2023-04-24T05:22:04;5.07;;;2.40;;
78670;SDS011;68277;52.724;6.516;2023-04-24T05:24:34;3.97;;;2.40;;
78670;SDS011;68277;52.724;6.516;2023-04-24T05:27:08;5.30;;;2.42;;
78670;SDS011;68277;52.724;6.516;2023-04-24T05:29:37;4.38;;;2.42;;
78670;SDS011;68277;52.724;6.516;2023-04-24T05:32:04;5.78;;;2.70;;
78670;SDS011;68277;52.724;6.516;2023-04-24T05:34:30;4.00;;;1.88;;
78670;SDS011;68277;52.724;6.516;2023-04-24T05:36:56;3.67;;;2.28;;
78670;SDS011;68277;52.724;6.516;2023-04-24T05:39:22;3.08;;;1.63;;
78670;SDS011;68277;52.724;6.516;2023-04-24T05:41:50;2.38;;;1.40;;
78670;SDS011;68277;52.724;6.516;2023-04-24T05:44:16;3.63;;;1.45;;
78670;SDS011;68277;52.724;6.516;2023-04-24T05:46:41;1.92;;;1.08;;
78670;SDS011;68277;52.724;6.516;2023-04-24T05:49:09;2.30;;;1.35;;
78670;SDS011;68277;52.724;6.516;2023-04-24T05:51:35;2.33;;;0.90;;
78670;SDS011;68277;52.724;6.516;2023-04-24T05:54:01;1.90;;;1.00;;
78670;SDS011;68277;52.724;6.516;2023-04-24T05:56:28;3.53;;;1.05;;
78670;SDS011;68277;52.724;6.516;2023-04-24T05:58:54;5.95;;;1.42;;
78670;SDS011;68277;52.724;6.516;2023-04-24T06:01:20;4.85;;;1.85;;
78670;SDS011;68277;52.724;6.516;2023-04-24T06:03:57;4.72;;;1.95;;
78670;SDS011;68277;52.724;6.516;2023-04-24T06:06:24;3.30;;;1.80;;
78670;SDS011;68277;52.724;6.516;2023-04-24T06:08:50;4.13;;;1.63;;
78670;SDS011;68277;52.724;6.516;2023-04-24T06:11:15;2.95;;;1.67;;
78670;SDS011;68277;52.724;6.516;2023-04-24T06:13:42;3.55;;;1.52;;
78670;SDS011;68277;52.724;6.516;2023-04-24T06:16:26;3.15;;;1.42;;
78670;SDS011;68277;52.724;6.516;2023-04-24T06:18:58;3.53;;;1.88;;
78670;SDS011;68277;52.724;6.516;2023-04-24T06:21:24;6.85;;;1.95;;
78670;SDS011;68277;52.724;6.516;2023-04-24T06:23:50;3.72;;;2.13;;
78670;SDS011;68277;52.724;6.516;2023-04-24T06:26:16;5.95;;;2.20;;
78670;SDS011;68277;52.724;6.516;2023-04-24T06:28:41;9.05;;;2.53;;
78670;SDS011;68277;52.724;6.516;2023-04-24T06:31:07;4.38;;;2.33;;
78670;SDS011;68277;52.724;6.516;2023-04-24T06:33:32;7.50;;;3.03;;
78670;SDS011;68277;52.724;6.516;2023-04-24T06:35:58;5.72;;;2.83;;
78670;SDS011;68277;52.724;6.516;2023-04-24T06:38:23;6.93;;;2.80;;
78670;SDS011;68277;52.724;6.516;2023-04-24T06:40:49;4.32;;;2.40;;
78670;SDS011;68277;52.724;6.516;2023-04-24T06:43:15;4.70;;;2.00;;
78670;SDS011;68277;52.724;6.516;2023-04-24T06:45:40;7.68;;;2.70;;
78670;SDS011;68277;52.724;6.516;2023-04-24T06:48:06;4.90;;;2.42;;
78670;SDS011;68277;52.724;6.516;2023-04-24T06:50:31;3.65;;;1.90;;
78670;SDS011;68277;52.724;6.516;2023-04-24T06:52:57;8.50;;;2.33;;
78670;SDS011;68277;52.724;6.516;2023-04-24T06:55:22;3.95;;;2.50;;
78670;SDS011;68277;52.724;6.516;2023-04-24T06:57:48;6.03;;;2.47;;
78670;SDS011;68277;52.724;6.516;2023-04-24T07:00:13;6.07;;;2.30;;
78670;SDS011;68277;52.724;6.516;2023-04-24T07:02:40;4.18;;;2.28;;
78670;SDS011;68277;52.724;6.516;2023-04-24T07:05:06;3.97;;;2.00;;
78670;SDS011;68277;52.724;6.516;2023-04-24T07:07:33;4.45;;;2.20;;
78670;SDS011;68277;52.724;6.516;2023-04-24T07:09:59;3.85;;;1.52;;
78670;SDS011;68277;52.724;6.516;2023-04-24T07:12:25;3.28;;;1.73;;
78670;SDS011;68277;52.724;6.516;2023-04-24T07:14:51;2.80;;;1.67;;
78670;SDS011;68277;52.724;6.516;2023-04-24T07:17:16;4.53;;;2.08;;
78670;SDS011;68277;52.724;6.516;2023-04-24T07:19:42;4.10;;;1.63;;
78670;SDS011;68277;52.724;6.516;2023-04-24T07:22:09;4.30;;;2.58;;
78670;SDS011;68277;52.724;6.516;2023-04-24T07:24:41;6.97;;;2.60;;
78670;SDS011;68277;52.724;6.516;2023-04-24T07:27:08;5.10;;;2.13;;
78670;SDS011;68277;52.724;6.516;2023-04-24T07:29:33;4.95;;;2.63;;
78670;SDS011;68277;52.724;6.516;2023-04-24T07:31:59;6.20;;;3.08;;
78670;SDS011;68277;52.724;6.516;2023-04-24T07:34:24;7.43;;;2.83;;
78670;SDS011;68277;52.724;6.516;2023-04-24T07:36:50;5.22;;;3.13;;
78670;SDS011;68277;52.724;6.516;2023-04-24T07:39:16;4.60;;;2.47;;
78670;SDS011;68277;52.724;6.516;2023-04-24T07:41:43;4.35;;;2.38;;
78670;SDS011;68277;52.724;6.516;2023-04-24T07:44:09;6.22;;;2.70;;
78670;SDS011;68277;52.724;6.516;2023-04-24T07:46:34;6.57;;;2.45;;
78670;SDS011;68277;52.724;6.516;2023-04-24T07:49:00;6.90;;;2.55;;
78670;SDS011;68277;52.724;6.516;2023-04-24T07:51:26;4.32;;;2.65;;
78670;SDS011;68277;52.724;6.516;2023-04-24T07:53:56;4.40;;;2.50;;
78670;SDS011;68277;52.724;6.516;2023-04-24T07:56:21;4.55;;;2.17;;
78670;SDS011;68277;52.724;6.516;2023-04-24T07:58:47;13.45;;;3.10;;
78670;SDS011;68277;52.724;6.516;2023-04-24T08:01:13;5.47;;;2.17;;
78670;SDS011;68277;52.724;6.516;2023-04-24T08:03:39;9.18;;;2.90;;
78670;SDS011;68277;52.724;6.516;2023-04-24T08:06:04;3.78;;;2.30;;
78670;SDS011;68277;52.724;6.516;2023-04-24T08:08:30;4.72;;;2.25;;
78670;SDS011;68277;52.724;6.516;2023-04-24T08:10:56;3.80;;;1.80;;
78670;SDS011;68277;52.724;6.516;2023-04-24T08:13:21;4.85;;;1.90;;
78670;SDS011;68277;52.724;6.516;2023-04-24T08:15:47;2.65;;;1.67;;
78670;SDS011;68277;52.724;6.516;2023-04-24T08:18:14;6.10;;;2.60;;
78670;SDS011;68277;52.724;6.516;2023-04-24T08:20:40;3.00;;;1.67;;
78670;SDS011;68277;52.724;6.516;2023-04-24T08:23:07;3.28;;;1.77;;
78670;SDS011;68277;52.724;6.516;2023-04-24T08:25:33;3.33;;;1.77;;
78670;SDS011;68277;52.724;6.516;2023-04-24T08:28:01;3.80;;;2.08;;
78670;SDS011;68277;52.724;6.516;2023-04-24T08:30:28;8.77;;;2.75;;
78670;SDS011;68277;52.724;6.516;2023-04-24T08:32:53;6.65;;;2.95;;
78670;SDS011;68277;52.724;6.516;2023-04-24T08:35:19;8.85;;;3.55;;
78670;SDS011;68277;52.724;6.516;2023-04-24T08:37:44;7.47;;;3.35;;
78670;SDS011;68277;52.724;6.516;2023-04-24T08:40:12;7.20;;;3.88;;
78670;SDS011;68277;52.724;6.516;2023-04-24T08:42:41;8.02;;;4.13;;
78670;SDS011;68277;52.724;6.516;2023-04-24T08:45:13;10.88;;;4.43;;
78670;SDS011;68277;52.724;6.516;2023-04-24T08:47:39;7.32;;;3.47;;
78670;SDS011;68277;52.724;6.516;2023-04-24T08:50:06;10.98;;;4.97;;
78670;SDS011;68277;52.724;6.516;2023-04-24T08:52:33;10.45;;;4.90;;
78670;SDS011;68277;52.724;6.516;2023-04-24T08:55:02;11.45;;;5.50;;
78670;SDS011;68277;52.724;6.516;2023-04-24T08:57:28;19.05;;;5.45;;
78670;SDS011;68277;52.724;6.516;2023-04-24T08:59:54;12.70;;;6.00;;
78670;SDS011;68277;52.724;6.516;2023-04-24T09:02:22;15.45;;;7.32;;
78670;SDS011;68277;52.724;6.516;2023-04-24T09:04:48;12.82;;;6.30;;
78670;SDS011;68277;52.724;6.516;2023-04-24T09:07:15;21.73;;;8.82;;
78670;SDS011;68277;52.724;6.516;2023-04-24T09:09:43;15.27;;;6.57;;
78670;SDS011;68277;52.724;6.516;2023-04-24T09:12:09;14.88;;;6.63;;
78670;SDS011;68277;52.724;6.516;2023-04-24T09:14:35;16.63;;;6.50;;
78670;SDS011;68277;52.724;6.516;2023-04-24T09:17:04;14.38;;;6.28;;
78670;SDS011;68277;52.724;6.516;2023-04-24T09:19:31;14.77;;;6.93;;
78670;SDS011;68277;52.724;6.516;2023-04-24T09:21:57;14.13;;;6.50;;
78670;SDS011;68277;52.724;6.516;2023-04-24T09:24:22;13.80;;;7.32;;
78670;SDS011;68277;52.724;6.516;2023-04-24T09:26:48;12.10;;;6.93;;
78670;SDS011;68277;52.724;6.516;2023-04-24T09:29:18;18.08;;;7.00;;
78670;SDS011;68277;52.724;6.516;2023-04-24T09:31:44;11.40;;;6.07;;
78670;SDS011;68277;52.724;6.516;2023-04-24T09:34:10;13.85;;;5.65;;
78670;SDS011;68277;52.724;6.516;2023-04-24T09:36:37;10.98;;;5.22;;
78670;SDS011;68277;52.724;6.516;2023-04-24T09:39:11;10.73;;;5.35;;
78670;SDS011;68277;52.724;6.516;2023-04-24T09:41:49;16.45;;;6.07;;
78670;SDS011;68277;52.724;6.516;2023-04-24T09:44:19;13.70;;;5.57;;
78670;SDS011;68277;52.724;6.516;2023-04-24T09:46:49;8.70;;;3.97;;
78670;SDS011;68277;52.724;6.516;2023-04-24T09:49:25;14.50;;;5.70;;
78670;SDS011;68277;52.724;6.516;2023-04-24T09:51:51;11.48;;;4.85;;
78670;SDS011;68277;52.724;6.516;2023-04-24T09:54:18;9.50;;;5.28;;
78670;SDS011;68277;52.724;6.516;2023-04-24T09:56:46;10.82;;;4.88;;
78670;SDS011;68277;52.724;6.516;2023-04-24T09:59:14;8.73;;;5.47;;
78670;SDS011;68277;52.724;6.516;2023-04-24T10:01:41;11.27;;;4.85;;
78670;SDS011;68277;52.724;6.516;2023-04-24T10:04:17;12.80;;;5.03;;
78670;SDS011;68277;52.724;6.516;2023-04-24T10:06:44;13.13;;;4.57;;
78670;SDS011;68277;52.724;6.516;2023-04-24T10:09:11;11.77;;;4.80;;
78670;SDS011;68277;52.724;6.516;2023-04-24T10:11:44;11.27;;;5.45;;
78670;SDS011;68277;52.724;6.516;2023-04-24T10:14:15;7.25;;;4.03;;
78670;SDS011;68277;52.724;6.516;2023-04-24T10:16:42;9.20;;;3.75;;
78670;SDS011;68277;52.724;6.516;2023-04-24T10:19:09;11.27;;;4.15;;
78670;SDS011;68277;52.724;6.516;2023-04-24T10:21:35;8.07;;;3.78;;
78670;SDS011;68277;52.724;6.516;2023-04-24T10:24:07;8.27;;;3.92;;
78670;SDS011;68277;52.724;6.516;2023-04-24T10:26:33;6.00;;;3.20;;
78670;SDS011;68277;52.724;6.516;2023-04-24T10:28:59;4.63;;;2.40;;
78670;SDS011;68277;52.724;6.516;2023-04-24T10:31:26;3.92;;;2.47;;
78670;SDS011;68277;52.724;6.516;2023-04-24T10:33:56;7.15;;;2.92;;
78670;SDS011;68277;52.724;6.516;2023-04-24T10:36:23;7.97;;;2.40;;
78670;SDS011;68277;52.724;6.516;2023-04-24T10:38:52;10.35;;;2.60;;
78670;SDS011;68277;52.724;6.516;2023-04-24T10:41:20;7.35;;;2.22;;
78670;SDS011;68277;52.724;6.516;2023-04-24T10:43:48;5.40;;;2.25;;
78670;SDS011;68277;52.724;6.516;2023-04-24T10:46:29;8.80;;;2.83;;
78670;SDS011;68277;52.724;6.516;2023-04-24T10:51:22;4.57;;;1.85;;
78670;SDS011;68277;52.724;6.516;2023-04-24T10:53:51;4.18;;;1.75;;
78670;SDS011;68277;52.724;6.516;2023-04-24T10:56:17;5.88;;;2.47;;
78670;SDS011;68277;52.724;6.516;2023-04-24T10:58:49;4.38;;;2.08;;
78670;SDS011;68277;52.724;6.516;2023-04-24T11:01:27;2.67;;;1.48;;
78670;SDS011;68277;52.724;6.516;2023-04-24T11:03:54;6.55;;;1.45;;
78670;SDS011;68277;52.724;6.516;2023-04-24T11:06:31;6.97;;;1.63;;
78670;SDS011;68277;52.724;6.516;2023-04-24T11:09:04;3.88;;;2.40;;
78670;SDS011;68277;52.724;6.516;2023-04-24T11:11:32;12.80;;;2.17;;
78670;SDS011;68277;52.724;6.516;2023-04-24T11:14:00;9.52;;;2.17;;
78670;SDS011;68277;52.724;6.516;2023-04-24T11:16:34;5.05;;;2.65;;
78670;SDS011;68277;52.724;6.516;2023-04-24T11:22:13;6.88;;;2.22;;
78670;SDS011;68277;52.724;6.516;2023-04-24T11:24:40;3.30;;;1.45;;
78670;SDS011;68277;52.724;6.516;2023-04-24T11:27:22;10.73;;;2.03;;
78670;SDS011;68277;52.724;6.516;2023-04-24T11:29:48;6.72;;;2.58;;
78670;SDS011;68277;52.724;6.516;2023-04-24T11:34:53;6.40;;;1.27;;
78670;SDS011;68277;52.724;6.516;2023-04-24T11:37:25;5.85;;;1.60;;
78670;SDS011;68277;52.724;6.516;2023-04-24T11:39:53;4.13;;;1.63;;
78670;SDS011;68277;52.724;6.516;2023-04-24T11:42:23;3.40;;;1.27;;
78670;SDS011;68277;52.724;6.516;2023-04-24T11:44:49;3.67;;;1.13;;
78670;SDS011;68277;52.724;6.516;2023-04-24T11:47:17;8.07;;;1.30;;
78670;SDS011;68277;52.724;6.516;2023-04-24T11:49:42;4.00;;;1.30;;
78670;SDS011;68277;52.724;6.516;2023-04-24T11:52:08;7.18;;;1.73;;
78670;SDS011;68277;52.724;6.516;2023-04-24T11:54:34;3.55;;;1.33;;
78670;SDS011;68277;52.724;6.516;2023-04-24T11:56:59;4.40;;;1.42;;
78670;SDS011;68277;52.724;6.516;2023-04-24T11:59:29;5.63;;;2.33;;
78670;SDS011;68277;52.724;6.516;2023-04-24T12:01:54;4.43;;;1.42;;
78670;SDS011;68277;52.724;6.516;2023-04-24T12:04:20;3.17;;;1.63;;
78670;SDS011;68277;52.724;6.516;2023-04-24T12:07:01;5.72;;;1.45;;
78670;SDS011;68277;52.724;6.516;2023-04-24T12:09:42;2.60;;;1.40;;
78670;SDS011;68277;52.724;6.516;2023-04-24T12:12:10;2.67;;;1.10;;
78670;SDS011;68277;52.724;6.516;2023-04-24T12:14:50;4.55;;;1.23;;
78670;SDS011;68277;52.724;6.516;2023-04-24T12:17:40;4.78;;;1.25;;
78670;SDS011;68277;52.724;6.516;2023-04-24T12:20:07;6.18;;;1.30;;
78670;SDS011;68277;52.724;6.516;2023-04-24T12:25:16;3.47;;;1.20;;
78670;SDS011;68277;52.724;6.516;2023-04-24T12:27:43;2.28;;;1.55;;
78670;SDS011;68277;52.724;6.516;2023-04-24T12:30:10;2.83;;;0.93;;
78670;SDS011;68277;52.724;6.516;2023-04-24T12:32:42;4.13;;;1.30;;
78670;SDS011;68277;52.724;6.516;2023-04-24T12:35:11;5.40;;;1.58;;
78670;SDS011;68277;52.724;6.516;2023-04-24T12:37:37;3.92;;;1.23;;
78670;SDS011;68277;52.724;6.516;2023-04-24T12:40:08;1.55;;;0.63;;
78670;SDS011;68277;52.724;6.516;2023-04-24T12:42:36;3.47;;;0.90;;
78670;SDS011;68277;52.724;6.516;2023-04-24T12:45:07;2.35;;;0.98;;
78670;SDS011;68277;52.724;6.516;2023-04-24T12:47:35;4.03;;;0.80;;
78670;SDS011;68277;52.724;6.516;2023-04-24T12:50:01;1.45;;;0.60;;
78670;SDS011;68277;52.724;6.516;2023-04-24T12:52:28;2.05;;;0.82;;
78670;SDS011;68277;52.724;6.516;2023-04-24T12:54:55;1.30;;;0.63;;
78670;SDS011;68277;52.724;6.516;2023-04-24T12:57:22;2.55;;;0.82;;
78670;SDS011;68277;52.724;6.516;2023-04-24T12:59:49;0.60;;;0.50;;
78670;SDS011;68277;52.724;6.516;2023-04-24T13:02:15;1.08;;;0.60;;
78670;SDS011;68277;52.724;6.516;2023-04-24T13:04:49;0.80;;;0.60;;
78670;SDS011;68277;52.724;6.516;2023-04-24T13:07:15;3.95;;;0.95;;
78670;SDS011;68277;52.724;6.516;2023-04-24T13:09:42;2.78;;;0.77;;
78670;SDS011;68277;52.724;6.516;2023-04-24T13:12:09;2.78;;;0.90;;
78670;SDS011;68277;52.724;6.516;2023-04-24T13:14:35;2.92;;;1.13;;
78670;SDS011;68277;52.724;6.516;2023-04-24T13:17:02;2.47;;;0.70;;
78670;SDS011;68277;52.724;6.516;2023-04-24T13:19:28;3.47;;;1.25;;
78670;SDS011;68277;52.724;6.516;2023-04-24T13:24:22;2.83;;;1.10;;
78670;SDS011;68277;52.724;6.516;2023-04-24T13:26:54;2.63;;;1.00;;
78670;SDS011;68277;52.724;6.516;2023-04-24T13:29:21;3.92;;;1.15;;
78670;SDS011;68277;52.724;6.516;2023-04-24T13:31:49;3.13;;;0.73;;
78670;SDS011;68277;52.724;6.516;2023-04-24T13:34:22;7.03;;;1.25;;
78670;SDS011;68277;52.724;6.516;2023-04-24T13:36:54;3.28;;;0.80;;
78670;SDS011;68277;52.724;6.516;2023-04-24T13:39:24;2.88;;;0.80;;
78670;SDS011;68277;52.724;6.516;2023-04-24T13:41:51;2.10;;;0.95;;
78670;SDS011;68277;52.724;6.516;2023-04-24T13:44:17;2.72;;;0.95;;
78670;SDS011;68277;52.724;6.516;2023-04-24T13:49:10;2.75;;;0.80;;
78670;SDS011;68277;52.724;6.516;2023-04-24T13:51:36;4.70;;;1.40;;
78670;SDS011;68277;52.724;6.516;2023-04-24T13:54:02;5.05;;;0.60;;
78670;SDS011;68277;52.724;6.516;2023-04-24T13:56:28;0.98;;;0.55;;
78670;SDS011;68277;52.724;6.516;2023-04-24T13:58:53;3.42;;;0.88;;
78670;SDS011;68277;52.724;6.516;2023-04-24T14:01:19;1.10;;;0.75;;
78670;SDS011;68277;52.724;6.516;2023-04-24T14:03:49;4.35;;;0.82;;
78670;SDS011;68277;52.724;6.516;2023-04-24T14:06:15;6.55;;;0.90;;
78670;SDS011;68277;52.724;6.516;2023-04-24T14:08:40;3.28;;;1.23;;
78670;SDS011;68277;52.724;6.516;2023-04-24T14:11:06;5.53;;;0.98;;
78670;SDS011;68277;52.724;6.516;2023-04-24T14:13:31;2.88;;;0.93;;
78670;SDS011;68277;52.724;6.516;2023-04-24T14:15:57;3.40;;;1.00;;
78670;SDS011;68277;52.724;6.516;2023-04-24T14:18:23;3.97;;;2.70;;
78670;SDS011;68277;52.724;6.516;2023-04-24T14:20:48;7.35;;;1.58;;
78670;SDS011;68277;52.724;6.516;2023-04-24T14:23:14;4.50;;;0.98;;
78670;SDS011;68277;52.724;6.516;2023-04-24T14:25:40;7.40;;;1.77;;
78670;SDS011;68277;52.724;6.516;2023-04-24T14:28:05;5.03;;;1.30;;
78670;SDS011;68277;52.724;6.516;2023-04-24T14:30:31;6.78;;;1.52;;
78670;SDS011;68277;52.724;6.516;2023-04-24T14:32:57;4.53;;;1.27;;
78670;SDS011;68277;52.724;6.516;2023-04-24T14:35:22;5.70;;;1.15;;
78670;SDS011;68277;52.724;6.516;2023-04-24T14:37:48;10.15;;;1.63;;
78670;SDS011;68277;52.724;6.516;2023-04-24T14:40:14;7.03;;;2.28;;
78670;SDS011;68277;52.724;6.516;2023-04-24T14:42:40;5.05;;;1.20;;
78670;SDS011;68277;52.724;6.516;2023-04-24T14:45:05;15.95;;;2.05;;
78670;SDS011;68277;52.724;6.516;2023-04-24T14:47:32;5.20;;;1.20;;
78670;SDS011;68277;52.724;6.516;2023-04-24T14:49:58;6.97;;;1.20;;
78670;SDS011;68277;52.724;6.516;2023-04-24T14:52:23;9.75;;;1.35;;
78670;SDS011;68277;52.724;6.516;2023-04-24T14:54:49;5.55;;;1.58;;
78670;SDS011;68277;52.724;6.516;2023-04-24T14:57:16;9.95;;;1.30;;
78670;SDS011;68277;52.724;6.516;2023-04-24T15:02:09;10.27;;;1.45;;
78670;SDS011;68277;52.724;6.516;2023-04-24T15:04:35;3.40;;;1.20;;
78670;SDS011;68277;52.724;6.516;2023-04-24T15:07:01;5.20;;;1.27;;
78670;SDS011;68277;52.724;6.516;2023-04-24T15:09:27;4.88;;;1.60;;
78670;SDS011;68277;52.724;6.516;2023-04-24T15:11:53;2.60;;;0.95;;